Terminal Aerodrome Forecast
Issued by NWS

Home | Current Version | Previous Version | Text Only | Print | Product List | Glossary On
Versions: 1 2 3 4 5 6 7 8 9 10 11 12
000
FTUS45 KVEF 252300
TAFHND
TAF
KHND 252320Z 2600/2624 21012G22KT P6SM FEW100
     FM261500 20010KT P6SM FEW250
     FM262000 34007KT P6SM FEW250=

USA.gov is the U.S. government's official web portal to all federal, state and local government web resources and services.